Time;durP1;ratioP1;P1;durP2;ratioP2;P2;SDS_P1;SDS_P2;PMS_P1;PMS_P2;Temp;Humidity;BMP_temperature;BMP_pressure;BME280_temperature;BME280_humidity;BME280_pressure;Samples;Min_cycle;Max_cycle;Signal;HPM_P1;HPM_P2
2022/02/25 00:02:07;;;;;;;4.63;2.55;;;5.50;67.20;;;;;;5047681;28;20025;-79
2022/02/25 00:04:34;;;;;;;8.48;2.47;;;5.50;67.30;;;;;;5056901;28;20108;-80
2022/02/25 00:06:59;;;;;;;8.10;2.78;;;5.50;67.70;;;;;;5055341;28;20442;-79
2022/02/25 00:09:25;;;;;;;8.73;3.00;;;5.40;68.10;;;;;;5037462;28;20053;-79
2022/02/25 00:11:51;;;;;;;7.90;2.72;;;5.40;68.00;;;;;;5035569;28;20055;-79
2022/02/25 00:14:17;;;;;;;4.05;2.03;;;5.50;67.90;;;;;;5036810;28;20084;-79
2022/02/25 00:16:42;;;;;;;7.82;2.20;;;5.50;67.80;;;;;;5064381;28;20076;-80
2022/02/25 00:19:08;;;;;;;10.38;2.60;;;5.40;68.00;;;;;;5076675;28;20074;-79
2022/02/25 00:21:34;;;;;;;7.65;2.13;;;5.40;68.00;;;;;;5076687;28;20127;-79
2022/02/25 00:23:59;;;;;;;5.47;1.88;;;5.40;68.20;;;;;;5057262;28;20858;-80
2022/02/25 00:26:25;;;;;;;6.20;2.53;;;5.40;68.20;;;;;;5036649;28;20021;-80
2022/02/25 00:28:51;;;;;;;5.97;2.63;;;5.40;68.50;;;;;;5036710;28;20071;-79
2022/02/25 00:31:17;;;;;;;5.97;2.13;;;5.40;68.40;;;;;;5041883;28;20039;-79
2022/02/25 00:33:43;;;;;;;4.30;1.88;;;5.40;68.60;;;;;;5056834;28;20029;-80
2022/02/25 00:36:09;;;;;;;10.27;2.33;;;5.30;68.60;;;;;;5056364;28;20036;-80
2022/02/25 00:38:35;;;;;;;7.28;2.55;;;5.30;68.70;;;;;;5054844;28;20070;-80
2022/02/25 00:41:01;;;;;;;9.23;1.95;;;5.30;68.50;;;;;;5043518;28;20033;-80
2022/02/25 00:43:27;;;;;;;9.07;2.40;;;5.30;68.50;;;;;;5035006;28;20029;-80
2022/02/25 00:45:53;;;;;;;3.55;2.13;;;5.30;68.80;;;;;;5036340;28;20096;-80
2022/02/25 00:48:18;;;;;;;4.43;2.08;;;5.20;69.40;;;;;;5036122;28;20025;-80
2022/02/25 00:50:44;;;;;;;5.35;2.22;;;5.10;69.70;;;;;;5046151;28;20544;-80
2022/02/25 00:53:10;;;;;;;5.03;2.10;;;5.10;69.70;;;;;;5052317;28;20028;-80
2022/02/25 00:55:36;;;;;;;8.57;2.25;;;5.20;69.80;;;;;;5035836;28;20025;-80
2022/02/25 00:58:02;;;;;;;8.45;2.42;;;5.20;69.60;;;;;;5037094;28;20074;-79
2022/02/25 01:00:28;;;;;;;6.50;2.72;;;5.20;69.30;;;;;;5054519;28;20052;-80
2022/02/25 01:02:54;;;;;;;10.52;3.50;;;5.20;69.30;;;;;;5054574;28;20025;-80
2022/02/25 01:05:20;;;;;;;7.30;2.17;;;5.20;69.70;;;;;;5056063;28;20131;-80
2022/02/25 01:07:47;;;;;;;11.68;2.95;;;5.20;69.70;;;;;;5035808;28;20563;-79
2022/02/25 01:10:16;;;;;;;10.30;3.25;;;5.20;69.70;;;;;;5034383;28;20033;-80
2022/02/25 01:12:43;;;;;;;9.95;2.85;;;5.20;69.60;;;;;;5035764;28;20083;-80
2022/02/25 01:15:12;;;;;;;9.32;3.22;;;5.20;69.70;;;;;;5038295;28;20039;-80
2022/02/25 01:17:39;;;;;;;14.77;3.13;;;5.10;70.30;;;;;;5074451;28;20406;-80
2022/02/25 01:20:06;;;;;;;9.70;2.97;;;5.00;70.90;;;;;;5075477;28;20048;-80
2022/02/25 01:22:32;;;;;;;12.35;3.40;;;5.00;71.10;;;;;;5072727;28;20107;-80
2022/02/25 01:24:59;;;;;;;5.57;2.47;;;5.00;71.30;;;;;;5044164;28;20029;-80
2022/02/25 01:27:25;;;;;;;4.43;1.83;;;5.00;71.00;;;;;;5035734;28;20075;-80
2022/02/25 01:29:51;;;;;;;7.10;2.67;;;5.10;70.70;;;;;;5035556;28;20753;-80
2022/02/25 01:32:17;;;;;;;5.57;2.50;;;5.10;70.80;;;;;;5035558;28;20029;-80
2022/02/25 01:34:43;;;;;;;5.07;2.10;;;5.10;70.90;;;;;;5035396;28;20036;-80
2022/02/25 01:37:09;;;;;;;3.90;2.08;;;5.00;71.30;;;;;;5033959;28;20488;-80
2022/02/25 01:39:35;;;;;;;4.22;1.90;;;5.00;71.50;;;;;;5033890;28;20026;-80
2022/02/25 01:42:00;;;;;;;7.40;2.70;;;5.00;71.50;;;;;;5034227;28;20450;-80
2022/02/25 01:44:29;;;;;;;7.55;2.28;;;5.10;71.40;;;;;;5033679;28;20026;-79
2022/02/25 01:47:05;;;;;;;11.50;2.92;;;5.10;71.10;;;;;;5035384;28;20115;-80
2022/02/25 01:49:31;;;;;;;8.30;3.53;;;5.10;71.20;;;;;;5035808;28;20113;-80
2022/02/25 01:52:03;;;;;;;7.75;2.45;;;5.10;71.30;;;;;;5039749;28;20852;-80
2022/02/25 01:54:30;;;;;;;8.38;3.15;;;5.10;71.50;;;;;;5035036;28;20030;-80
2022/02/25 01:56:58;;;;;;;11.32;3.00;;;5.20;71.20;;;;;;5051338;28;20029;-80
2022/02/25 01:59:25;;;;;;;8.52;2.28;;;5.10;71.70;;;;;;5052850;28;20036;-80
2022/02/25 02:01:50;;;;;;;8.65;2.55;;;5.10;71.40;;;;;;5055136;28;20021;-80
2022/02/25 02:04:16;;;;;;;6.72;2.10;;;5.10;71.30;;;;;;5050751;28;20033;-79
2022/02/25 02:06:42;;;;;;;7.72;2.25;;;5.10;71.50;;;;;;5033735;28;20040;-79
2022/02/25 02:09:08;;;;;;;7.30;2.22;;;5.10;71.40;;;;;;5052188;28;20045;-80
2022/02/25 02:11:41;;;;;;;5.38;2.30;;;5.00;71.40;;;;;;5054846;28;20033;-80
2022/02/25 02:14:12;;;;;;;5.50;2.30;;;5.00;71.40;;;;;;5049209;28;20041;-80
2022/02/25 02:16:38;;;;;;;6.07;2.47;;;5.00;71.50;;;;;;5067368;28;20082;-80
2022/02/25 02:19:04;;;;;;;10.73;2.28;;;5.00;71.50;;;;;;5073460;28;20032;-80
2022/02/25 02:21:31;;;;;;;8.75;2.53;;;5.00;71.80;;;;;;5061802;28;20104;-80
2022/02/25 02:23:59;;;;;;;9.32;3.05;;;5.00;71.80;;;;;;5040182;28;20148;-79
2022/02/25 02:26:27;;;;;;;6.03;2.80;;;4.90;72.10;;;;;;5036992;28;20036;-80
2022/02/25 02:28:53;;;;;;;7.95;2.92;;;4.90;71.90;;;;;;5038402;28;20079;-81
2022/02/25 02:31:19;;;;;;;4.78;2.25;;;4.90;71.90;;;;;;5039044;28;20037;-80
2022/02/25 02:33:45;;;;;;;7.00;2.50;;;4.90;71.90;;;;;;5038914;28;20036;-80
2022/02/25 02:36:11;;;;;;;5.70;2.05;;;4.90;71.90;;;;;;5037450;28;20039;-80
2022/02/25 02:38:38;;;;;;;6.93;2.65;;;4.80;72.10;;;;;;5038729;28;20079;-80
2022/02/25 02:41:04;;;;;;;3.58;2.08;;;4.80;72.60;;;;;;5038554;28;20068;-80
2022/02/25 02:43:30;;;;;;;11.63;2.53;;;4.80;72.60;;;;;;5038828;28;20817;-80
2022/02/25 02:45:56;;;;;;;7.68;2.33;;;4.70;72.80;;;;;;5058225;28;20029;-80
2022/02/25 02:48:23;;;;;;;12.23;2.85;;;4.80;72.60;;;;;;5044809;28;20060;-80
2022/02/25 02:50:48;;;;;;;13.82;3.42;;;4.80;73.00;;;;;;5038612;28;20037;-80
2022/02/25 02:53:14;;;;;;;8.05;2.72;;;4.80;72.80;;;;;;5038292;28;20028;-80
2022/02/25 02:55:42;;;;;;;11.60;2.75;;;4.80;72.80;;;;;;5037125;28;20403;-80
2022/02/25 02:58:09;;;;;;;5.95;2.45;;;4.70;72.80;;;;;;5038327;28;20148;-80
2022/02/25 03:00:34;;;;;;;4.25;2.00;;;4.70;72.80;;;;;;5036990;28;20036;-79
2022/02/25 03:03:00;;;;;;;7.90;2.58;;;4.70;73.10;;;;;;5038531;28;20598;-80
2022/02/25 03:05:26;;;;;;;5.72;1.92;;;4.70;73.20;;;;;;5048068;28;20028;-80
2022/02/25 03:07:52;;;;;;;3.22;2.30;;;4.60;73.70;;;;;;5058262;28;20135;-80
2022/02/25 03:10:19;;;;;;;3.83;1.90;;;4.60;73.80;;;;;;5056697;28;20025;-80
2022/02/25 03:12:45;;;;;;;3.97;1.85;;;4.60;73.60;;;;;;5056688;28;20031;-79
2022/02/25 03:15:12;;;;;;;7.22;2.40;;;4.70;73.60;;;;;;5040257;28;20036;-80
2022/02/25 03:17:38;;;;;;;8.77;2.50;;;4.60;73.60;;;;;;5078114;28;20560;-79
2022/02/25 03:20:06;;;;;;;8.38;2.67;;;4.60;73.80;;;;;;5078144;28;20036;-79
2022/02/25 03:22:32;;;;;;;6.75;2.70;;;4.60;73.80;;;;;;5057179;28;20025;-80
2022/02/25 03:24:58;;;;;;;8.15;2.80;;;4.60;73.90;;;;;;5053411;28;20507;-80
2022/02/25 03:27:24;;;;;;;7.35;2.17;;;4.60;73.80;;;;;;5036772;28;20025;-79
2022/02/25 03:29:51;;;;;;;3.63;2.00;;;4.50;73.80;;;;;;5037854;28;20029;-80
2022/02/25 03:32:17;;;;;;;5.50;2.55;;;4.50;74.50;;;;;;5036579;28;20025;-81
2022/02/25 03:34:43;;;;;;;7.80;2.85;;;4.50;74.50;;;;;;5052610;28;20104;-80
2022/02/25 03:37:09;;;;;;;4.50;2.15;;;4.50;74.30;;;;;;5053932;28;20111;-80
2022/02/25 03:39:35;;;;;;;6.22;2.42;;;4.50;74.40;;;;;;5036098;28;20030;-80
2022/02/25 03:42:01;;;;;;;5.68;2.63;;;4.50;74.50;;;;;;5037637;28;20033;-80
2022/02/25 03:44:26;;;;;;;6.60;2.42;;;4.50;74.70;;;;;;5044989;28;20024;-80
2022/02/25 03:46:52;;;;;;;6.63;3.15;;;4.40;74.70;;;;;;5056090;28;20025;-80
2022/02/25 03:49:18;;;;;;;7.80;2.28;;;4.50;74.60;;;;;;5057420;28;20403;-80
2022/02/25 03:51:44;;;;;;;5.25;2.20;;;4.50;74.50;;;;;;5043812;28;20033;-80
2022/02/25 03:54:10;;;;;;;13.23;2.95;;;4.50;74.40;;;;;;5040918;28;20025;-80
2022/02/25 03:56:36;;;;;;;8.00;2.35;;;4.50;74.60;;;;;;5057264;28;20079;-80
2022/02/25 03:59:03;;;;;;;10.02;2.55;;;4.50;74.70;;;;;;5055852;28;20514;-80
2022/02/25 04:01:28;;;;;;;4.88;2.63;;;4.50;74.80;;;;;;5047720;28;20053;-80
2022/02/25 04:03:54;;;;;;;4.47;2.17;;;4.40;75.30;;;;;;5037132;28;20029;-80
2022/02/25 04:06:20;;;;;;;9.02;2.50;;;4.40;75.30;;;;;;5037114;28;20022;-80
2022/02/25 04:08:46;;;;;;;5.25;1.92;;;4.40;75.40;;;;;;5035665;28;20199;-80
2022/02/25 04:11:11;;;;;;;6.15;2.03;;;4.40;75.40;;;;;;5036997;28;20096;-81
2022/02/25 04:13:38;;;;;;;4.40;1.90;;;4.40;75.60;;;;;;5035632;28;20029;-80
2022/02/25 04:16:05;;;;;;;7.72;2.40;;;4.30;75.50;;;;;;5055253;28;20524;-80
2022/02/25 04:18:30;;;;;;;7.70;2.40;;;4.30;75.80;;;;;;5076921;28;20482;-80
2022/02/25 04:20:56;;;;;;;6.93;2.05;;;4.40;75.10;;;;;;5054849;28;20025;-80
2022/02/25 04:23:22;;;;;;;10.77;2.58;;;4.40;75.70;;;;;;5055591;28;20074;-79
2022/02/25 04:25:48;;;;;;;6.45;2.05;;;4.40;75.70;;;;;;5046626;28;20026;-80
2022/02/25 04:28:14;;;;;;;6.25;2.05;;;4.40;75.70;;;;;;5036791;28;20052;-80
2022/02/25 04:30:41;;;;;;;3.78;2.35;;;4.40;75.60;;;;;;5035434;28;20026;-80
2022/02/25 04:33:06;;;;;;;5.05;2.00;;;4.40;75.60;;;;;;5036767;28;20028;-80
2022/02/25 04:35:32;;;;;;;4.63;1.85;;;4.40;75.50;;;;;;5036455;28;20659;-80
2022/02/25 04:37:58;;;;;;;7.38;2.22;;;4.40;75.40;;;;;;5036722;28;20024;-80
2022/02/25 04:40:24;;;;;;;6.88;2.70;;;4.30;75.60;;;;;;5036141;28;20817;-80
2022/02/25 04:42:50;;;;;;;5.25;2.72;;;4.40;75.40;;;;;;5036727;28;20030;-80
2022/02/25 04:45:16;;;;;;;6.28;2.50;;;4.40;75.50;;;;;;5045816;28;20032;-80
2022/02/25 04:47:43;;;;;;;5.63;2.03;;;4.30;75.80;;;;;;5034825;28;20025;-80
2022/02/25 04:50:11;;;;;;;7.30;2.47;;;4.30;75.90;;;;;;5034390;28;20137;-80
2022/02/25 04:52:38;;;;;;;6.80;2.72;;;4.30;76.10;;;;;;5036231;28;20060;-80
2022/02/25 04:55:04;;;;;;;5.22;1.83;;;4.20;76.30;;;;;;5034931;28;20029;-79
2022/02/25 04:57:30;;;;;;;11.50;2.13;;;4.30;76.30;;;;;;5036108;28;20519;-79
2022/02/25 04:59:56;;;;;;;8.18;3.15;;;4.30;76.40;;;;;;5035707;28;20029;-79
2022/02/25 05:02:22;;;;;;;5.88;2.35;;;4.30;76.40;;;;;;5034850;28;20025;-79
2022/02/25 05:04:47;;;;;;;6.07;2.00;;;4.20;76.60;;;;;;5036090;28;20032;-80
2022/02/25 05:07:13;;;;;;;5.05;2.25;;;4.30;76.50;;;;;;5034684;28;20578;-80
2022/02/25 05:09:39;;;;;;;7.50;2.13;;;4.20;76.60;;;;;;5034594;28;20046;-80
2022/02/25 05:12:05;;;;;;;3.75;2.35;;;4.20;76.80;;;;;;5034545;28;20025;-80
2022/02/25 05:20:15;;;;;;;6.47;2.47;;;4.20;76.90;;;;;;5056554;28;20037;-80
2022/02/25 05:22:42;;;;;;;8.00;2.33;;;4.20;76.70;;;;;;5038275;28;20025;-80
2022/02/25 05:25:08;;;;;;;7.95;2.25;;;4.20;76.90;;;;;;5048787;28;20403;-80
2022/02/25 05:27:34;;;;;;;4.53;2.20;;;4.20;77.00;;;;;;5035870;28;20022;-80
2022/02/25 05:30:00;;;;;;;5.07;2.08;;;4.20;77.00;;;;;;5035644;28;20045;-80
2022/02/25 05:32:26;;;;;;;3.60;2.15;;;4.20;77.00;;;;;;5035532;28;20034;-80
2022/02/25 05:34:52;;;;;;;5.47;2.08;;;4.20;77.20;;;;;;5035560;28;20044;-81
2022/02/25 05:37:17;;;;;;;9.02;2.95;;;4.20;77.00;;;;;;5035264;28;20021;-80
2022/02/25 05:39:43;;;;;;;6.32;3.17;;;4.20;77.10;;;;;;5033841;28;20104;-80
2022/02/25 05:42:09;;;;;;;6.78;2.00;;;4.20;77.00;;;;;;5034070;28;20078;-80
2022/02/25 05:44:34;;;;;;;5.95;2.72;;;4.20;77.20;;;;;;5042685;28;20047;-80
2022/02/25 05:47:00;;;;;;;3.85;2.28;;;4.20;77.00;;;;;;5055221;28;20029;-80
2022/02/25 06:10:06;;;;;;;16.10;4.68;;;2.40;82.20;;;;;;5056130;28;20398;-78
2022/02/25 06:12:32;;;;;;;13.63;4.28;;;2.40;82.20;;;;;;5067122;28;20048;-78
2022/02/25 06:14:57;;;;;;;6.28;3.35;;;2.60;82.00;;;;;;5070167;28;20486;-77
2022/02/25 06:17:23;;;;;;;10.13;3.88;;;2.90;81.40;;;;;;5068999;28;20441;-74
2022/02/25 06:19:49;;;;;;;14.27;4.28;;;3.10;80.60;;;;;;5068780;28;20029;-76
2022/02/25 06:22:14;;;;;;;9.48;3.75;;;3.40;79.90;;;;;;5069014;28;20024;-77
2022/02/25 06:24:40;;;;;;;10.30;3.75;;;3.50;79.10;;;;;;5071671;28;20053;-77
2022/02/25 06:27:06;;;;;;;6.18;3.55;;;3.70;78.80;;;;;;5068204;28;20029;-77
2022/02/25 06:29:32;;;;;;;6.63;3.85;;;3.70;78.40;;;;;;5068595;28;20032;-77
2022/02/25 06:31:58;;;;;;;2.80;2.50;;;3.70;77.90;;;;;;5070562;28;20046;-76
2022/02/25 06:34:23;;;;;;;5.90;3.25;;;3.80;77.90;;;;;;5071237;28;20118;-77
2022/02/25 06:36:49;;;;;;;5.55;2.67;;;3.80;77.70;;;;;;5057648;28;20033;-76
2022/02/25 06:39:15;;;;;;;8.18;3.08;;;3.80;77.70;;;;;;5051461;28;20037;-77
2022/02/25 06:41:41;;;;;;;4.07;2.55;;;3.80;77.30;;;;;;5051692;28;20028;-77
2022/02/25 06:44:07;;;;;;;5.68;2.75;;;3.80;77.80;;;;;;5056637;28;20051;-77
2022/02/25 06:46:33;;;;;;;6.85;3.13;;;3.80;77.60;;;;;;5071487;28;20991;-77
2022/02/25 06:48:59;;;;;;;11.48;3.78;;;3.80;78.00;;;;;;5071487;28;20032;-77
2022/02/25 06:51:24;;;;;;;7.95;3.28;;;3.80;78.10;;;;;;5070121;28;20033;-76
2022/02/25 06:53:50;;;;;;;10.25;3.10;;;3.80;78.10;;;;;;5069846;28;20037;-76
2022/02/25 06:56:17;;;;;;;8.07;3.38;;;3.80;78.10;;;;;;5061018;28;20028;-76
2022/02/25 06:58:42;;;;;;;7.00;3.20;;;3.80;78.20;;;;;;5052094;28;20024;-75
2022/02/25 07:01:08;;;;;;;6.13;3.58;;;3.80;78.00;;;;;;5071104;28;20046;-76
2022/02/25 07:03:34;;;;;;;7.35;4.07;;;3.90;77.70;;;;;;5066647;28;20402;-76
2022/02/25 07:06:00;;;;;;;6.90;3.00;;;3.90;77.50;;;;;;5069407;28;20161;-76
2022/02/25 07:08:26;;;;;;;7.00;3.45;;;3.90;77.80;;;;;;5070298;28;20049;-76
2022/02/25 07:10:51;;;;;;;6.25;4.20;;;3.90;77.50;;;;;;5069172;28;20029;-76
2022/02/25 07:13:19;;;;;;;8.43;5.47;;;4.00;77.50;;;;;;5070533;28;20120;-76
2022/02/25 07:15:45;;;;;;;11.75;5.97;;;3.90;77.70;;;;;;5069052;28;20039;-76
2022/02/25 07:18:13;;;;;;;9.57;5.72;;;3.90;78.10;;;;;;5071019;28;20032;-76
2022/02/25 07:20:39;;;;;;;11.98;5.60;;;4.00;78.00;;;;;;5065650;28;20017;-77
2022/02/25 07:23:04;;;;;;;13.05;6.25;;;4.00;77.80;;;;;;5068626;28;20027;-76
2022/02/25 07:25:30;;;;;;;11.10;5.22;;;4.20;77.30;;;;;;5059698;28;20029;-77
2022/02/25 07:27:56;;;;;;;8.63;5.45;;;4.10;77.30;;;;;;5037573;28;20060;-77
2022/02/25 07:30:23;;;;;;;14.85;5.75;;;4.20;77.10;;;;;;5049502;28;20033;-76
2022/02/25 07:32:50;;;;;;;13.15;5.30;;;4.30;77.10;;;;;;5037435;28;20026;-76
2022/02/25 07:35:16;;;;;;;10.07;4.57;;;4.40;77.00;;;;;;5050320;28;20026;-76
2022/02/25 07:37:42;;;;;;;8.18;3.85;;;4.70;76.60;;;;;;5061654;28;20021;-76
2022/02/25 07:40:09;;;;;;;7.57;2.88;;;5.10;75.60;;;;;;5053425;28;20032;-76
2022/02/25 07:42:35;;;;;;;8.38;3.25;;;5.40;74.60;;;;;;5056355;28;20111;-77
2022/02/25 07:45:01;;;;;;;7.85;3.33;;;5.30;74.80;;;;;;5056691;28;20052;-77
2022/02/25 07:47:27;;;;;;;8.52;3.05;;;5.20;74.80;;;;;;5055862;28;20043;-77
2022/02/25 07:49:53;;;;;;;8.20;2.95;;;5.20;75.00;;;;;;5056635;28;20025;-77
2022/02/25 07:52:20;;;;;;;4.95;2.95;;;5.20;75.10;;;;;;5055471;28;20075;-77
2022/02/25 07:54:47;;;;;;;4.32;3.17;;;5.50;75.00;;;;;;5056300;28;20100;-77
2022/02/25 07:57:14;;;;;;;7.95;3.20;;;6.70;72.00;;;;;;5056494;28;20025;-77
2022/02/25 07:59:40;;;;;;;7.60;3.47;;;8.00;68.00;;;;;;5046962;28;20116;-77
2022/02/25 08:02:06;;;;;;;7.05;3.15;;;9.10;65.00;;;;;;5036521;28;20128;-77
2022/02/25 08:04:32;;;;;;;7.88;3.03;;;9.80;62.20;;;;;;5047163;28;20499;-77
2022/02/25 08:06:59;;;;;;;6.72;2.78;;;10.20;60.30;;;;;;5056399;28;20108;-77
2022/02/25 08:09:24;;;;;;;8.98;3.80;;;10.20;60.30;;;;;;5053652;28;20404;-76
2022/02/25 08:11:50;;;;;;;8.23;3.63;;;10.20;59.60;;;;;;5056465;28;20017;-77
2022/02/25 08:14:16;;;;;;;7.63;3.33;;;10.50;59.10;;;;;;5043840;28;20037;-77
2022/02/25 08:16:42;;;;;;;9.80;3.63;;;11.00;58.00;;;;;;5064998;28;20025;-77
2022/02/25 08:19:08;;;;;;;6.07;3.35;;;11.30;57.30;;;;;;5076242;28;20495;-77
2022/02/25 08:21:36;;;;;;;7.63;3.10;;;11.20;56.50;;;;;;5054876;28;20103;-77
2022/02/25 08:24:04;;;;;;;8.15;3.70;;;11.20;57.30;;;;;;5051612;28;20029;-75
2022/02/25 08:26:29;;;;;;;9.02;3.20;;;11.20;56.30;;;;;;5042957;28;20049;-82
2022/02/25 08:28:55;;;;;;;9.23;3.33;;;11.20;56.50;;;;;;5045514;28;20036;-78
2022/02/25 08:31:22;;;;;;;6.60;3.53;;;11.50;56.80;;;;;;5053838;28;20127;-78
2022/02/25 08:33:48;;;;;;;8.80;3.20;;;11.80;55.70;;;;;;5061121;28;20593;-78
2022/02/25 08:36:14;;;;;;;11.10;3.50;;;11.70;56.00;;;;;;5055462;28;20021;-78
2022/02/25 08:38:39;;;;;;;8.60;3.72;;;11.50;54.80;;;;;;5048964;28;20037;-79
2022/02/25 08:41:05;;;;;;;9.25;3.17;;;11.30;56.50;;;;;;5035722;28;20041;-79
2022/02/25 08:43:31;;;;;;;8.32;3.20;;;11.10;57.40;;;;;;5034992;28;20036;-79
2022/02/25 08:45:58;;;;;;;10.18;3.47;;;11.10;56.70;;;;;;5057353;28;20043;-78
2022/02/25 08:48:24;;;;;;;7.70;3.67;;;11.40;57.00;;;;;;5056449;28;20053;-78
2022/02/25 08:50:50;;;;;;;8.10;3.15;;;11.70;56.70;;;;;;5070313;28;20083;-79
2022/02/25 08:53:16;;;;;;;6.05;2.30;;;11.80;56.20;;;;;;5063978;28;20107;-79
2022/02/25 08:55:42;;;;;;;8.27;3.22;;;12.10;56.30;;;;;;5063670;28;20053;-79
2022/02/25 08:58:08;;;;;;;7.07;2.55;;;12.10;55.30;;;;;;5064551;28;20036;-78
2022/02/25 09:00:34;;;;;;;5.82;3.20;;;12.20;55.00;;;;;;5072492;28;20139;-79
2022/02/25 09:03:00;;;;;;;9.25;3.25;;;12.20;55.90;;;;;;5074065;28;20178;-79
2022/02/25 09:05:26;;;;;;;10.10;2.83;;;12.40;55.20;;;;;;5054639;28;20595;-79
2022/02/25 09:07:53;;;;;;;6.80;3.47;;;12.60;54.60;;;;;;5062605;28;20025;-79
2022/02/25 09:10:19;;;;;;;8.10;2.70;;;12.70;54.40;;;;;;5064116;28;20082;-79
2022/02/25 09:12:46;;;;;;;6.07;3.17;;;12.80;54.50;;;;;;5056224;28;20025;-79
2022/02/25 09:15:14;;;;;;;8.02;2.60;;;12.80;54.80;;;;;;5055801;28;20554;-79
2022/02/25 09:17:40;;;;;;;8.77;1.95;;;12.60;55.00;;;;;;5050535;28;20071;-79
2022/02/25 09:20:08;;;;;;;10.10;2.88;;;12.20;55.80;;;;;;5061982;28;20118;-79
2022/02/25 09:22:34;;;;;;;13.25;3.40;;;11.80;57.30;;;;;;5071453;28;20020;-78
2022/02/25 09:25:00;;;;;;;9.45;2.30;;;11.20;59.00;;;;;;5060600;28;20036;-79
2022/02/25 09:27:27;;;;;;;10.02;3.03;;;11.10;60.20;;;;;;5061619;28;20036;-79
2022/02/25 09:29:53;;;;;;;7.90;2.72;;;10.90;60.60;;;;;;5055086;28;20451;-79
2022/02/25 09:32:19;;;;;;;7.30;2.85;;;10.80;61.60;;;;;;5042060;28;20104;-78
2022/02/25 09:34:46;;;;;;;10.80;3.63;;;10.60;61.30;;;;;;5074681;28;20116;-78
2022/02/25 09:37:11;;;;;;;10.10;2.83;;;10.80;62.40;;;;;;5051184;28;20056;-78
2022/02/25 09:39:37;;;;;;;7.22;2.90;;;11.20;61.40;;;;;;5054926;28;20036;-78
2022/02/25 09:42:05;;;;;;;8.38;4.32;;;11.70;60.70;;;;;;5054912;28;20086;-78
2022/02/25 09:44:33;;;;;;;5.38;3.42;;;12.40;58.70;;;;;;5056879;28;20400;-78
2022/02/25 09:46:59;;;;;;;7.85;3.28;;;13.10;55.90;;;;;;5047629;28;20494;-78
2022/02/25 09:49:24;;;;;;;6.55;2.78;;;14.20;53.50;;;;;;5063318;28;20058;-78
2022/02/25 09:51:52;;;;;;;6.28;3.15;;;15.10;51.10;;;;;;5061180;28;20021;-78
2022/02/25 09:54:19;;;;;;;5.32;3.10;;;15.80;49.40;;;;;;5034869;28;20029;-78
2022/02/25 09:56:49;;;;;;;8.85;3.28;;;16.30;48.00;;;;;;5049492;28;20274;-78
2022/02/25 09:59:16;;;;;;;9.07;3.40;;;16.50;47.40;;;;;;5057568;28;20388;-79
2022/02/25 10:01:42;;;;;;;8.90;2.95;;;17.00;46.70;;;;;;5047698;28;20456;-79
2022/02/25 10:04:13;;;;;;;6.35;3.10;;;17.20;45.50;;;;;;5065496;28;20025;-78
2022/02/25 10:06:40;;;;;;;9.02;2.67;;;17.00;44.40;;;;;;5052338;28;20032;-79
2022/02/25 10:09:25;;;;;;;11.13;3.22;;;17.00;44.70;;;;;;5048864;28;20084;-78
2022/02/25 10:11:59;;;;;;;7.80;2.80;;;17.10;46.00;;;;;;5040997;28;20025;-78
2022/02/25 10:14:34;;;;;;;9.07;2.78;;;16.80;46.00;;;;;;5054538;28;20111;-79
2022/02/25 10:17:08;;;;;;;8.32;3.65;;;16.40;46.60;;;;;;5046331;28;20025;-78
2022/02/25 10:19:34;;;;;;;10.63;3.35;;;16.30;47.70;;;;;;5049743;28;20028;-78
2022/02/25 10:22:22;;;;;;;8.18;3.00;;;15.90;46.40;;;;;;5050305;28;20454;-78
2022/02/25 10:24:56;;;;;;;8.35;2.50;;;15.30;48.30;;;;;;5063680;28;20044;-78
2022/02/25 10:27:27;;;;;;;6.93;2.22;;;15.10;50.30;;;;;;5065181;28;20048;-79
2022/02/25 10:29:58;;;;;;;7.70;2.25;;;14.90;50.10;;;;;;5066972;28;20025;-78
2022/02/25 10:32:35;;;;;;;10.65;2.85;;;14.60;52.10;;;;;;5061925;28;20486;-77
2022/02/25 10:35:18;;;;;;;8.45;2.55;;;13.80;52.00;;;;;;5045034;28;20614;-78
2022/02/25 10:37:54;;;;;;;6.68;1.98;;;13.40;53.50;;;;;;5052986;28;20052;-78
2022/02/25 10:40:20;;;;;;;8.73;2.30;;;13.20;55.70;;;;;;5054337;28;20017;-78
2022/02/25 10:42:46;;;;;;;10.32;3.40;;;13.00;57.00;;;;;;5049755;28;20021;-78
2022/02/25 10:45:12;;;;;;;8.05;2.17;;;12.90;58.10;;;;;;5034532;28;20064;-78
2022/02/25 10:47:43;;;;;;;5.32;2.40;;;12.80;58.50;;;;;;5035401;28;20028;-78
2022/02/25 10:50:12;;;;;;;9.90;2.22;;;12.70;58.70;;;;;;5053421;28;20033;-78
2022/02/25 10:52:40;;;;;;;7.22;2.47;;;12.70;59.30;;;;;;5054082;28;20064;-78
2022/02/25 10:55:12;;;;;;;10.65;2.63;;;12.50;59.70;;;;;;5049682;28;20439;-77
2022/02/25 10:57:37;;;;;;;9.90;2.63;;;12.60;59.60;;;;;;5056071;28;20025;-78
2022/02/25 11:00:09;;;;;;;8.57;2.55;;;12.70;60.10;;;;;;5057278;28;20054;-78
2022/02/25 11:02:48;;;;;;;13.10;2.30;;;12.70;59.10;;;;;;5056245;28;20111;-78
2022/02/25 11:05:19;;;;;;;8.32;3.13;;;12.60;59.00;;;;;;5056479;28;20116;-78
2022/02/25 11:07:57;;;;;;;9.70;2.58;;;12.50;57.60;;;;;;5057183;28;20021;-77
2022/02/25 11:10:26;;;;;;;11.35;2.33;;;12.30;57.60;;;;;;5053982;28;20136;-77
2022/02/25 11:12:52;;;;;;;12.07;3.25;;;12.10;58.00;;;;;;5055416;28;20115;-78
2022/02/25 11:15:22;;;;;;;10.30;2.90;;;12.20;58.50;;;;;;5058926;28;20552;-78
2022/02/25 11:17:48;;;;;;;14.50;2.88;;;12.30;58.70;;;;;;5057248;28;20025;-78
2022/02/25 11:20:29;;;;;;;21.33;4.70;;;12.30;55.90;;;;;;5055092;28;20501;-77
2022/02/25 11:23:12;;;;;;;7.70;2.13;;;12.50;55.00;;;;;;5057545;28;20047;-78
2022/02/25 11:25:40;;;;;;;10.40;2.20;;;12.60;56.10;;;;;;5057530;28;20028;-78
2022/02/25 11:28:07;;;;;;;16.02;3.45;;;12.80;55.10;;;;;;5045421;28;20507;-78
2022/02/25 11:30:33;;;;;;;9.55;1.85;;;12.80;54.40;;;;;;5057212;28;20690;-78
2022/02/25 11:33:00;;;;;;;9.63;2.58;;;12.80;54.10;;;;;;5053678;28;20120;-78
2022/02/25 11:35:34;;;;;;;10.75;2.13;;;12.80;55.30;;;;;;5057451;28;20021;-78
2022/02/25 11:38:09;;;;;;;12.05;2.25;;;13.20;54.20;;;;;;5056500;28;20080;-78
2022/02/25 11:40:54;;;;;;;9.70;2.20;;;13.50;53.50;;;;;;5052899;28;20112;-77
2022/02/25 11:43:42;;;;;;;11.70;2.55;;;13.60;52.70;;;;;;5054563;28;20041;-77
2022/02/25 11:46:14;;;;;;;8.70;2.10;;;13.70;53.20;;;;;;5033503;28;20550;-78
2022/02/25 11:48:45;;;;;;;6.68;1.77;;;13.80;51.20;;;;;;5036962;28;20053;-77
2022/02/25 11:51:32;;;;;;;10.27;1.88;;;13.50;49.90;;;;;;5037043;28;20014;-78
2022/02/25 11:54:35;;;;;;;13.35;3.15;;;13.10;51.20;;;;;;5047293;28;21048;-78
2022/02/25 11:57:04;;;;;;;8.88;2.05;;;13.20;50.70;;;;;;5042965;28;20018;-79
2022/02/25 11:59:32;;;;;;;9.45;1.92;;;13.30;49.90;;;;;;5049849;28;20491;-78
2022/02/25 12:02:12;;;;;;;14.02;2.50;;;13.50;49.40;;;;;;5049331;28;20064;-78
2022/02/25 12:04:43;;;;;;;6.18;1.98;;;13.70;49.80;;;;;;5046829;28;20484;-77
2022/02/25 12:07:16;;;;;;;13.98;2.67;;;13.60;48.20;;;;;;5052170;28;20106;-77
2022/02/25 12:09:53;;;;;;;6.45;1.83;;;13.30;49.40;;;;;;5052774;28;20394;-78
2022/02/25 12:12:28;;;;;;;7.22;2.00;;;13.30;49.90;;;;;;5042715;28;20112;-78
2022/02/25 12:15:16;;;;;;;6.45;1.67;;;13.30;49.50;;;;;;5046273;28;20025;-79
2022/02/25 12:17:41;;;;;;;7.95;1.73;;;13.40;50.10;;;;;;5047231;28;20082;-77
2022/02/25 12:20:28;;;;;;;11.23;2.10;;;13.30;50.60;;;;;;5043684;28;20029;-76
2022/02/25 12:22:57;;;;;;;11.93;2.22;;;12.90;47.80;;;;;;5047353;28;20055;-75
2022/02/25 12:25:41;;;;;;;4.68;1.52;;;13.00;48.60;;;;;;5048954;28;20147;-77
2022/02/25 12:28:33;;;;;;;9.05;2.28;;;13.00;47.80;;;;;;5052451;28;20040;-77
2022/02/25 12:31:22;;;;;;;9.13;2.40;;;13.20;48.20;;;;;;5052335;28;20021;-76
2022/02/25 12:34:03;;;;;;;12.23;2.35;;;13.50;50.60;;;;;;5050589;28;20025;-77
2022/02/25 12:36:29;;;;;;;7.50;2.00;;;13.90;48.10;;;;;;5054408;28;20100;-77
2022/02/25 12:39:08;;;;;;;12.65;2.13;;;14.00;48.00;;;;;;5054091;28;20448;-77
2022/02/25 12:41:36;;;;;;;6.63;1.88;;;13.70;47.80;;;;;;5054190;28;20459;-76
2022/02/25 12:44:08;;;;;;;13.98;3.03;;;13.90;48.30;;;;;;5051624;28;20029;-77
2022/02/25 12:46:58;;;;;;;7.78;1.90;;;13.70;48.00;;;;;;5045955;28;20030;-77
2022/02/25 12:49:25;;;;;;;7.75;2.05;;;13.40;48.50;;;;;;5036101;28;20499;-77
2022/02/25 12:51:56;;;;;;;7.60;1.77;;;13.30;47.40;;;;;;5034387;28;20030;-77
2022/02/25 12:54:27;;;;;;;6.35;1.88;;;13.10;47.80;;;;;;5035976;28;20476;-77
2022/02/25 12:56:56;;;;;;;8.25;1.85;;;12.90;46.40;;;;;;5034641;28;20030;-77
2022/02/25 12:59:35;;;;;;;10.60;1.83;;;12.60;47.20;;;;;;5057535;28;20415;-77
2022/02/25 13:02:10;;;;;;;7.07;1.45;;;12.40;47.60;;;;;;5074098;28;20470;-77
2022/02/25 13:04:47;;;;;;;10.10;2.30;;;12.30;48.40;;;;;;5051817;28;20044;-77
2022/02/25 13:07:14;;;;;;;11.68;1.70;;;12.50;48.50;;;;;;5045116;28;20025;-77
2022/02/25 13:09:40;;;;;;;10.13;2.03;;;12.80;47.80;;;;;;5055881;28;20526;-77
2022/02/25 13:12:12;;;;;;;11.52;1.98;;;13.20;47.40;;;;;;5053960;28;20021;-77
2022/02/25 13:14:43;;;;;;;6.22;1.60;;;13.50;47.50;;;;;;5055269;28;20531;-76
2022/02/25 13:17:13;;;;;;;12.18;1.63;;;13.50;46.60;;;;;;5037251;28;20032;-77
2022/02/25 13:19:47;;;;;;;9.32;2.60;;;13.50;47.80;;;;;;5051488;28;20032;-76
2022/02/25 13:22:15;;;;;;;11.98;2.15;;;13.20;49.80;;;;;;5051909;28;20035;-77